Time,TemperatureF,DewpointF,PressureIn,WindDirection,WindDirectionDegrees,WindSpeedMPH,WindSpeedGustMPH,Humidity,HourlyPrecipIn,Conditions,Clouds,dailyrainin,SoftwareType,DateUTC
2013-03-05 10:09:00,48.1,22.4,30.86,North,6,20.0,20.0,36,0.00,,,0.00,Weather View 32 v70,2013-03-05 16:09:00,
2013-03-05 10:10:00,47.8,22.7,30.86,NNW,343,14.0,22.0,37,0.00,,,0.00,Weather View 32 v70,2013-03-05 16:10:00,
2013-03-05 10:15:00,47.8,22.7,30.86,North,6,15.0,22.0,37,0.00,,,0.00,Weather View 32 v70,2013-03-05 16:15:00,
2013-03-05 10:20:00,47.9,22.8,30.87,NNW,343,17.0,27.0,37,0.00,,,0.00,Weather View 32 v70,2013-03-05 16:20:00,
2013-03-05 10:25:00,48.2,21.8,30.87,NW,321,14.0,27.0,35,0.00,,,0.00,Weather View 32 v70,2013-03-05 16:25:00,
2013-03-05 10:30:00,49.1,23.9,30.88,NNW,343,14.0,27.0,37,0.00,,,0.00,Weather View 32 v70,2013-03-05 16:30:00,
2013-03-05 10:35:00,48.3,22.5,30.88,NNW,343,16.0,27.0,36,0.00,,,0.00,Weather View 32 v70,2013-03-05 16:35:00,
2013-03-05 10:40:00,48.0,21.6,30.88,NW,321,14.0,27.0,35,0.00,,,0.00,Weather View 32 v70,2013-03-05 16:40:00,
2013-03-05 10:45:00,49.0,21.8,30.88,NNW,343,14.0,27.0,34,0.00,,,0.00,Weather View 32 v70,2013-03-05 16:45:00,
2013-03-05 10:50:00,49.3,21.4,30.89,North,6,16.0,27.0,33,0.00,,,0.00,Weather View 32 v70,2013-03-05 16:50:00,
2013-03-05 10:55:00,48.5,19.9,30.88,NE,51,16.0,27.0,32,0.00,,,0.00,Weather View 32 v70,2013-03-05 16:55:00,
2013-03-05 11:00:00,48.5,20.7,30.89,NNW,343,21.0,29.0,33,0.00,,,0.00,Weather View 32 v70,2013-03-05 17:00:00,
2013-03-05 11:05:00,49.4,20.7,30.88,NNW,343,14.0,29.0,32,0.00,,,0.00,Weather View 32 v70,2013-03-05 17:05:00,
2013-03-05 11:10:00,48.9,20.3,30.88,North,6,19.0,29.0,32,0.00,,,0.00,Weather View 32 v70,2013-03-05 17:10:00,
2013-03-05 11:15:00,49.2,19.8,30.89,NNW,343,16.0,29.0,31,0.00,,,0.00,Weather View 32 v70,2013-03-05 17:15:00,
2013-03-05 11:20:00,49.5,20.1,30.89,North,6,9.0,29.0,31,0.00,,,0.00,Weather View 32 v70,2013-03-05 17:20:00,
2013-03-05 11:25:00,49.1,20.5,30.89,NW,321,18.0,29.0,32,0.00,,,0.00,Weather View 32 v70,2013-03-05 17:25:00,
2013-03-05 11:30:00,49.4,22.2,30.89,NNW,343,14.0,29.0,34,0.00,,,0.00,Weather View 32 v70,2013-03-05 17:30:00,
2013-03-05 11:35:00,49.1,21.2,30.88,NNW,343,19.0,29.0,33,0.00,,,0.00,Weather View 32 v70,2013-03-05 17:35:00,
2013-03-05 11:40:00,49.4,20.7,30.88,NW,321,17.0,29.0,32,0.00,,,0.00,Weather View 32 v70,2013-03-05 17:40:00,
2013-03-05 11:45:00,50.0,21.2,30.89,NNW,343,18.0,29.0,32,0.00,,,0.00,Weather View 32 v70,2013-03-05 17:45:00,
2013-03-05 11:50:00,50.0,19.7,30.88,NNW,343,16.0,29.0,30,0.00,,,0.00,Weather View 32 v70,2013-03-05 17:50:00,
2013-03-05 11:55:00,49.8,19.6,30.88,NW,321,19.0,29.0,30,0.00,,,0.00,Weather View 32 v70,2013-03-05 17:55:00,
2013-03-05 12:00:00,49.8,18.8,30.88,NW,321,13.0,28.0,29,0.00,,,0.00,Weather View 32 v70,2013-03-05 18:00:00,
2013-03-05 12:05:00,49.9,18.9,30.89,North,6,11.0,28.0,29,0.00,,,0.00,Weather View 32 v70,2013-03-05 18:05:00,
2013-03-05 12:10:00,50.7,19.5,30.89,NW,321,18.0,28.0,29,0.00,,,0.00,Weather View 32 v70,2013-03-05 18:10:00,
2013-03-05 12:15:00,50.2,19.1,30.89,NNW,343,14.0,28.0,29,0.00,,,0.00,Weather View 32 v70,2013-03-05 18:15:00,
2013-03-05 12:20:00,51.2,20.8,30.89,NW,321,16.0,28.0,30,0.00,,,0.00,Weather View 32 v70,2013-03-05 18:20:00,
2013-03-05 12:25:00,50.0,18.9,30.88,NW,321,18.0,28.0,29,0.00,,,0.00,Weather View 32 v70,2013-03-05 18:25:00,
2013-03-05 12:30:00,50.4,20.1,30.89,North,6,16.0,28.0,30,0.00,,,0.00,Weather View 32 v70,2013-03-05 18:30:00,
2013-03-05 12:35:00,50.8,19.6,30.89,NNW,343,11.0,28.0,29,0.00,,,0.00,Weather View 32 v70,2013-03-05 18:35:00,
2013-03-05 12:40:00,50.8,19.6,30.89,NNW,343,18.0,28.0,29,0.00,,,0.00,Weather View 32 v70,2013-03-05 18:40:00,
2013-03-05 12:45:00,52.0,21.5,30.89,NNW,343,12.0,28.0,30,0.00,,,0.00,Weather View 32 v70,2013-03-05 18:45:00,
2013-03-05 12:50:00,51.4,19.3,30.88,NNW,343,13.0,28.0,28,0.00,,,0.00,Weather View 32 v70,2013-03-05 18:50:00,
2013-03-05 12:55:00,51.2,20.0,30.88,North,6,16.0,27.0,29,0.00,,,0.00,Weather View 32 v70,2013-03-05 18:55:00,
2013-03-05 13:01:00,50.3,19.2,30.88,NW,321,15.0,27.0,29,0.00,,,0.00,Weather View 32 v70,2013-03-05 19:01:00,
2013-03-05 13:06:00,52.0,23.0,30.88,NNW,343,14.0,26.0,32,0.00,,,0.00,Weather View 32 v70,2013-03-05 19:06:00,
2013-03-05 13:11:00,52.2,22.4,30.88,NNW,343,12.0,26.0,31,0.00,,,0.00,Weather View 32 v70,2013-03-05 19:11:00,
2013-03-05 13:16:00,52.5,21.9,30.88,NNW,343,13.0,26.0,30,0.00,,,0.00,Weather View 32 v70,2013-03-05 19:16:00,
2013-03-05 13:21:00,52.4,21.8,30.87,NW,321,10.0,26.0,30,0.00,,,0.00,Weather View 32 v70,2013-03-05 19:21:00,
2013-03-05 13:26:00,52.6,22.0,30.87,North,6,11.0,26.0,30,0.00,,,0.00,Weather View 32 v70,2013-03-05 19:26:00,
2013-03-05 13:31:00,52.0,19.8,30.87,NNW,343,18.0,25.0,28,0.00,,,0.00,Weather View 32 v70,2013-03-05 19:31:00,
2013-03-05 13:36:00,52.3,19.3,30.87,NNW,343,13.0,25.0,27,0.00,,,0.00,Weather View 32 v70,2013-03-05 19:36:00,
2013-03-05 13:41:00,52.8,21.4,30.87,NW,321,12.0,25.0,29,0.00,,,0.00,Weather View 32 v70,2013-03-05 19:41:00,
2013-03-05 13:46:00,52.6,20.4,30.86,WNW,298,19.0,25.0,28,0.00,,,0.00,Weather View 32 v70,2013-03-05 19:46:00,
2013-03-05 13:51:00,52.9,18.9,30.86,NW,321,11.0,25.0,26,0.00,,,0.00,Weather View 32 v70,2013-03-05 19:51:00,
2013-03-05 13:56:00,52.5,19.4,30.87,NNW,343,14.0,25.0,27,0.00,,,0.00,Weather View 32 v70,2013-03-05 19:56:00,
2013-03-05 14:01:00,54.2,21.7,30.86,NW,321,14.0,25.0,28,0.00,,,0.00,Weather View 32 v70,2013-03-05 20:01:00,
2013-03-05 14:06:00,53.2,19.1,30.86,NW,321,16.0,25.0,26,0.00,,,0.00,Weather View 32 v70,2013-03-05 20:06:00,
2013-03-05 14:11:00,53.2,18.2,30.86,NNW,343,10.0,25.0,25,0.00,,,0.00,Weather View 32 v70,2013-03-05 20:11:00,
2013-03-05 14:16:00,53.3,19.2,30.85,WNW,298,13.0,25.0,26,0.00,,,0.00,Weather View 32 v70,2013-03-05 20:16:00,
2013-03-05 14:21:00,52.7,17.8,30.86,NW,321,15.0,25.0,25,0.00,,,0.00,Weather View 32 v70,2013-03-05 20:21:00,
2013-03-05 14:26:00,52.8,16.9,30.86,WNW,298,18.0,27.0,24,0.00,,,0.00,Weather View 32 v70,2013-03-05 20:26:00,
2013-03-05 14:31:00,53.5,18.5,30.85,NW,321,12.0,27.0,25,0.00,,,0.00,Weather View 32 v70,2013-03-05 20:31:00,
2013-03-05 14:36:00,53.5,17.5,30.85,NW,321,12.0,27.0,24,0.00,,,0.00,Weather View 32 v70,2013-03-05 20:36:00,
2013-03-05 14:41:00,53.7,17.7,30.85,NW,321,14.0,27.0,24,0.00,,,0.00,Weather View 32 v70,2013-03-05 20:41:00,
2013-03-05 14:46:00,54.2,18.1,30.85,NNW,343,15.0,27.0,24,0.00,,,0.00,Weather View 32 v70,2013-03-05 20:46:00,
2013-03-05 14:51:00,53.8,17.8,30.85,NNW,343,15.0,27.0,24,0.00,,,0.00,Weather View 32 v70,2013-03-05 20:51:00,
2013-03-05 14:56:00,54.4,18.3,30.85,North,6,11.0,27.0,24,0.00,,,0.00,Weather View 32 v70,2013-03-05 20:56:00,
2013-03-05 15:01:00,53.5,17.5,30.85,NW,321,16.0,27.0,24,0.00,,,0.00,Weather View 32 v70,2013-03-05 21:01:00,
2013-03-05 15:06:00,54.4,18.3,30.85,NNW,343,18.0,27.0,24,0.00,,,0.00,Weather View 32 v70,2013-03-05 21:06:00,
2013-03-05 15:11:00,54.1,18.0,30.85,NNW,343,18.0,27.0,24,0.00,,,0.00,Weather View 32 v70,2013-03-05 21:11:00,
2013-03-05 15:16:00,54.6,18.5,30.85,WNW,298,16.0,27.0,24,0.00,,,0.00,Weather View 32 v70,2013-03-05 21:16:00,
2013-03-05 15:21:00,54.8,18.6,30.85,North,6,12.0,27.0,24,0.00,,,0.00,Weather View 32 v70,2013-03-05 21:21:00,
2013-03-05 15:26:00,54.7,17.6,30.84,NNW,343,21.0,27.0,23,0.00,,,0.00,Weather View 32 v70,2013-03-05 21:26:00,
2013-03-05 15:31:00,55.0,17.8,30.85,NE,51,12.0,27.0,23,0.00,,,0.00,Weather View 32 v70,2013-03-05 21:31:00,
2013-03-05 15:36:00,54.5,17.4,30.84,WNW,298,19.0,25.0,23,0.00,,,0.00,Weather View 32 v70,2013-03-05 21:36:00,
2013-03-05 15:41:00,54.9,18.7,30.85,NNW,343,18.0,23.0,24,0.00,,,0.00,Weather View 32 v70,2013-03-05 21:41:00,
2013-03-05 15:46:00,54.4,18.3,30.84,North,6,10.0,23.0,24,0.00,,,0.00,Weather View 32 v70,2013-03-05 21:46:00,
2013-03-05 15:51:00,54.7,17.6,30.84,NW,321,20.0,23.0,23,0.00,,,0.00,Weather View 32 v70,2013-03-05 21:51:00,
2013-03-05 15:56:00,54.3,18.2,30.84,WNW,298,14.0,23.0,24,0.00,,,0.00,Weather View 32 v70,2013-03-05 21:56:00,
2013-03-05 16:01:00,55.4,19.1,30.84,WNW,298,14.0,23.0,24,0.00,,,0.00,Weather View 32 v70,2013-03-05 22:01:00,
2013-03-05 16:06:00,54.6,17.5,30.84,NW,321,16.0,23.0,23,0.00,,,0.00,Weather View 32 v70,2013-03-05 22:06:00,
2013-03-05 16:11:00,55.1,18.9,30.84,NNW,343,13.0,23.0,24,0.00,,,0.00,Weather View 32 v70,2013-03-05 22:11:00,
2013-03-05 16:16:00,55.2,19.0,30.84,NNW,343,13.0,23.0,24,0.00,,,0.00,Weather View 32 v70,2013-03-05 22:16:00,
2013-03-05 16:21:00,54.9,18.7,30.84,NNW,343,18.0,23.0,24,0.00,,,0.00,Weather View 32 v70,2013-03-05 22:21:00,
2013-03-05 16:26:00,55.4,18.1,30.84,NNE,28,15.0,23.0,23,0.00,,,0.00,Weather View 32 v70,2013-03-05 22:26:00,
2013-03-05 16:31:00,55.1,17.9,30.84,NNW,343,14.0,23.0,23,0.00,,,0.00,Weather View 32 v70,2013-03-05 22:31:00,
2013-03-05 16:36:00,54.8,17.6,30.84,WNW,298,13.0,23.0,23,0.00,,,0.00,Weather View 32 v70,2013-03-05 22:36:00,
2013-03-05 16:41:00,55.3,19.1,30.84,NNW,343,16.0,23.0,24,0.00,,,0.00,Weather View 32 v70,2013-03-05 22:41:00,
2013-03-05 16:46:00,55.3,18.1,30.84,NNW,343,10.0,23.0,23,0.00,,,0.00,Weather View 32 v70,2013-03-05 22:46:00,
2013-03-05 16:51:00,55.2,18.0,30.84,NNW,343,11.0,23.0,23,0.00,,,0.00,Weather View 32 v70,2013-03-05 22:51:00,
2013-03-05 16:56:00,55.3,18.1,30.84,NNW,343,10.0,23.0,23,0.00,,,0.00,Weather View 32 v70,2013-03-05 22:56:00,
2013-03-05 17:01:00,55.2,18.0,30.85,North,6,12.0,23.0,23,0.00,,,0.00,Weather View 32 v70,2013-03-05 23:01:00,
2013-03-05 17:06:00,54.9,18.7,30.84,NNW,343,15.0,23.0,24,0.00,,,0.00,Weather View 32 v70,2013-03-05 23:06:00,
2013-03-05 17:11:00,55.3,19.1,30.84,NW,321,8.0,23.0,24,0.00,,,0.00,Weather View 32 v70,2013-03-05 23:11:00,
2013-03-05 17:16:00,54.9,17.7,30.84,North,6,13.0,23.0,23,0.00,,,0.00,Weather View 32 v70,2013-03-05 23:16:00,
2013-03-05 17:21:00,54.8,18.6,30.84,NW,321,13.0,23.0,24,0.00,,,0.00,Weather View 32 v70,2013-03-05 23:21:00,
2013-03-05 17:26:00,54.9,18.7,30.85,North,6,13.0,23.0,24,0.00,,,0.00,Weather View 32 v70,2013-03-05 23:26:00,
2013-03-05 17:31:00,54.8,18.6,30.85,NW,321,11.0,23.0,24,0.00,,,0.00,Weather View 32 v70,2013-03-05 23:31:00,
2013-03-05 17:36:00,54.8,18.6,30.85,North,6,9.0,23.0,24,0.00,,,0.00,Weather View 32 v70,2013-03-05 23:36:00,
2013-03-05 17:41:00,54.8,19.6,30.85,NNW,343,8.0,23.0,25,0.00,,,0.00,Weather View 32 v70,2013-03-05 23:41:00,
2013-03-05 17:46:00,54.6,19.4,30.85,NNW,343,15.0,23.0,25,0.00,,,0.00,Weather View 32 v70,2013-03-05 23:46:00,
2013-03-05 17:51:00,54.2,18.1,30.85,NNW,343,14.0,19.0,24,0.00,,,0.00,Weather View 32 v70,2013-03-05 23:51:00,
2013-03-05 17:56:00,54.1,18.0,30.85,NW,321,12.0,22.0,24,0.00,,,0.00,Weather View 32 v70,2013-03-05 23:56:00,
2013-03-05 18:01:00,53.9,18.8,30.85,NNW,343,10.0,22.0,25,0.00,,,0.00,Weather View 32 v70,2013-03-06 00:01:00,
2013-03-05 18:06:00,53.8,18.7,30.85,NNW,343,11.0,22.0,25,0.00,,,0.00,Weather View 32 v70,2013-03-06 00:06:00,
2013-03-05 18:11:00,53.7,18.7,30.85,NNW,343,13.0,22.0,25,0.00,,,0.00,Weather View 32 v70,2013-03-06 00:11:00,
2013-03-05 18:16:00,53.6,18.6,30.86,NNW,343,11.0,22.0,25,0.00,,,0.00,Weather View 32 v70,2013-03-06 00:16:00,
2013-03-05 18:21:00,53.4,18.4,30.86,NNW,343,13.0,22.0,25,0.00,,,0.00,Weather View 32 v70,2013-03-06 00:21:00,
2013-03-05 18:26:00,53.3,18.3,30.86,NW,321,13.0,22.0,25,0.00,,,0.00,Weather View 32 v70,2013-03-06 00:26:00,
2013-03-05 18:31:00,53.0,19.0,30.86,NW,321,7.0,22.0,26,0.00,,,0.00,Weather View 32 v70,2013-03-06 00:31:00,
2013-03-05 18:36:00,52.9,19.8,30.87,NW,321,9.0,22.0,27,0.00,,,0.00,Weather View 32 v70,2013-03-06 00:36:00,
2013-03-05 18:41:00,52.8,19.7,30.87,NNE,28,8.0,22.0,27,0.00,,,0.00,Weather View 32 v70,2013-03-06 00:41:00,
2013-03-05 18:46:00,52.7,20.4,30.87,NW,321,7.0,22.0,28,0.00,,,0.00,Weather View 32 v70,2013-03-06 00:46:00,
2013-03-05 18:51:00,52.5,20.3,30.87,NNW,343,7.0,22.0,28,0.00,,,0.00,Weather View 32 v70,2013-03-06 00:51:00,
2013-03-05 18:56:00,52.3,20.1,30.87,NNW,343,10.0,19.0,28,0.00,,,0.00,Weather View 32 v70,2013-03-06 00:56:00,
2013-03-05 19:01:00,52.2,20.0,30.87,NW,321,8.0,19.0,28,0.00,,,0.00,Weather View 32 v70,2013-03-06 01:01:00,
2013-03-05 19:06:00,52.3,19.3,30.88,NW,321,11.0,19.0,27,0.00,,,0.00,Weather View 32 v70,2013-03-06 01:06:00,
2013-03-05 19:11:00,52.0,19.8,30.88,NW,321,9.0,19.0,28,0.00,,,0.00,Weather View 32 v70,2013-03-06 01:11:00,
2013-03-05 19:16:00,51.9,19.8,30.88,NW,321,7.0,19.0,28,0.00,,,0.00,Weather View 32 v70,2013-03-06 01:16:00,
2013-03-05 19:21:00,51.7,19.6,30.88,North,6,8.0,19.0,28,0.00,,,0.00,Weather View 32 v70,2013-03-06 01:21:00,
2013-03-05 19:26:00,51.6,20.3,30.88,NW,321,6.0,16.0,29,0.00,,,0.00,Weather View 32 v70,2013-03-06 01:26:00,
2013-03-05 19:31:00,51.3,20.9,30.88,NW,321,7.0,16.0,30,0.00,,,0.00,Weather View 32 v70,2013-03-06 01:31:00,
2013-03-05 19:36:00,51.2,20.8,30.88,North,6,5.0,14.0,30,0.00,,,0.00,Weather View 32 v70,2013-03-06 01:36:00,
2013-03-05 19:41:00,50.9,21.3,30.88,NNW,343,6.0,14.0,31,0.00,,,0.00,Weather View 32 v70,2013-03-06 01:41:00,
2013-03-05 19:46:00,50.8,21.2,30.88,NW,321,7.0,14.0,31,0.00,,,0.00,Weather View 32 v70,2013-03-06 01:46:00,
2013-03-05 19:51:00,50.7,21.1,30.88,NW,321,5.0,14.0,31,0.00,,,0.00,Weather View 32 v70,2013-03-06 01:51:00,
2013-03-05 19:56:00,50.5,20.9,30.89,NW,321,7.0,14.0,31,0.00,,,0.00,Weather View 32 v70,2013-03-06 01:56:00,
2013-03-05 20:01:00,50.2,20.7,30.89,NW,321,5.0,14.0,31,0.00,,,0.00,Weather View 32 v70,2013-03-06 02:01:00,
2013-03-05 20:06:00,50.1,20.6,30.89,NNW,343,6.0,14.0,31,0.00,,,0.00,Weather View 32 v70,2013-03-06 02:06:00,
2013-03-05 20:11:00,49.9,21.2,30.89,NW,321,6.0,12.0,32,0.00,,,0.00,Weather View 32 v70,2013-03-06 02:11:00,
2013-03-05 20:16:00,49.9,21.2,30.89,NW,321,6.0,11.0,32,0.00,,,0.00,Weather View 32 v70,2013-03-06 02:16:00,
2013-03-05 20:21:00,49.6,21.6,30.89,NW,321,5.0,11.0,33,0.00,,,0.00,Weather View 32 v70,2013-03-06 02:21:00,
2013-03-05 20:26:00,49.6,21.6,30.90,NW,321,8.0,11.0,33,0.00,,,0.00,Weather View 32 v70,2013-03-06 02:26:00,
2013-03-05 20:31:00,49.5,20.8,30.90,NW,321,6.0,11.0,32,0.00,,,0.00,Weather View 32 v70,2013-03-06 02:31:00,
2013-03-05 20:36:00,49.2,21.3,30.90,NNW,343,5.0,11.0,33,0.00,,,0.00,Weather View 32 v70,2013-03-06 02:36:00,
2013-03-05 20:41:00,49.2,21.3,30.89,NNW,343,5.0,11.0,33,0.00,,,0.00,Weather View 32 v70,2013-03-06 02:41:00,
2013-03-05 20:46:00,49.1,21.2,30.90,NW,321,9.0,11.0,33,0.00,,,0.00,Weather View 32 v70,2013-03-06 02:46:00,
2013-03-05 20:51:00,48.9,21.7,30.90,NNW,343,8.0,11.0,34,0.00,,,0.00,Weather View 32 v70,2013-03-06 02:51:00,
2013-03-05 20:56:00,48.8,21.6,30.90,NW,321,6.0,11.0,34,0.00,,,0.00,Weather View 32 v70,2013-03-06 02:56:00,
2013-03-05 21:01:00,48.6,22.1,30.90,North,6,8.0,12.0,35,0.00,,,0.00,Weather View 32 v70,2013-03-06 03:01:00,
2013-03-05 21:06:00,48.5,22.0,30.90,NW,321,8.0,12.0,35,0.00,,,0.00,Weather View 32 v70,2013-03-06 03:06:00,
2013-03-05 21:11:00,48.3,22.5,30.90,North,6,8.0,12.0,36,0.00,,,0.00,Weather View 32 v70,2013-03-06 03:11:00,
2013-03-05 21:16:00,48.1,22.4,30.90,North,6,7.0,12.0,36,0.00,,,0.00,Weather View 32 v70,2013-03-06 03:16:00,
2013-03-05 21:21:00,47.8,22.1,30.91,NNW,343,6.0,12.0,36,0.00,,,0.00,Weather View 32 v70,2013-03-06 03:21:00,
2013-03-05 21:26:00,47.5,21.8,30.91,NNW,343,5.0,12.0,36,0.00,,,0.00,Weather View 32 v70,2013-03-06 03:26:00,
2013-03-05 21:31:00,47.3,21.7,30.91,North,6,5.0,12.0,36,0.00,,,0.00,Weather View 32 v70,2013-03-06 03:31:00,
2013-03-05 21:36:00,47.3,21.7,30.91,NNW,343,6.0,12.0,36,0.00,,,0.00,Weather View 32 v70,2013-03-06 03:36:00,
2013-03-05 21:41:00,47.1,21.5,30.91,NW,321,5.0,12.0,36,0.00,,,0.00,Weather View 32 v70,2013-03-06 03:41:00,
2013-03-05 21:46:00,47.0,21.4,30.91,North,6,7.0,12.0,36,0.00,,,0.00,Weather View 32 v70,2013-03-06 03:46:00,
2013-03-05 21:51:00,46.8,21.9,30.91,NNW,343,5.0,12.0,37,0.00,,,0.00,Weather View 32 v70,2013-03-06 03:51:00,
2013-03-05 21:56:00,46.7,21.8,30.92,North,6,6.0,12.0,37,0.00,,,0.00,Weather View 32 v70,2013-03-06 03:56:00,
2013-03-05 22:01:00,46.7,21.8,30.91,NNW,343,5.0,11.0,37,0.00,,,0.00,Weather View 32 v70,2013-03-06 04:01:00,
2013-03-05 22:06:00,46.4,22.1,30.92,North,6,3.0,11.0,38,0.00,,,0.00,Weather View 32 v70,2013-03-06 04:06:00,
2013-03-05 22:11:00,46.3,22.0,30.92,NW,321,7.0,11.0,38,0.00,,,0.00,Weather View 32 v70,2013-03-06 04:11:00,
2013-03-05 22:16:00,46.1,21.9,30.92,NNW,343,4.0,10.0,38,0.00,,,0.00,Weather View 32 v70,2013-03-06 04:16:00,
2013-03-05 22:21:00,46.1,21.9,30.92,NNW,343,5.0,10.0,38,0.00,,,0.00,Weather View 32 v70,2013-03-06 04:21:00,
2013-03-05 22:26:00,46.0,21.8,30.92,NNW,343,4.0,10.0,38,0.00,,,0.00,Weather View 32 v70,2013-03-06 04:26:00,
2013-03-05 22:31:00,45.9,21.7,30.92,NW,321,3.0,10.0,38,0.00,,,0.00,Weather View 32 v70,2013-03-06 04:31:00,
2013-03-05 22:36:00,45.8,21.6,30.92,North,6,5.0,10.0,38,0.00,,,0.00,Weather View 32 v70,2013-03-06 04:36:00,
2013-03-05 22:41:00,45.7,21.5,30.92,NW,321,6.0,10.0,38,0.00,,,0.00,Weather View 32 v70,2013-03-06 04:41:00,
2013-03-05 22:46:00,45.6,21.4,30.93,NNW,343,5.0,10.0,38,0.00,,,0.00,Weather View 32 v70,2013-03-06 04:46:00,
2013-03-05 22:51:00,45.4,21.2,30.93,NNW,343,5.0,10.0,38,0.00,,,0.00,Weather View 32 v70,2013-03-06 04:51:00,
2013-03-05 22:56:00,45.4,21.2,30.92,NNW,343,6.0,9.0,38,0.00,,,0.00,Weather View 32 v70,2013-03-06 04:56:00,
2013-03-05 23:00:00,45.3,21.8,30.92,NNW,343,5.0,9.0,39,0.00,,,0.00,Weather View 32 v70,2013-03-06 05:00:00,
2013-03-05 23:05:00,45.2,21.7,30.93,NW,321,5.0,9.0,39,0.00,,,0.00,Weather View 32 v70,2013-03-06 05:05:00,
2013-03-05 23:10:00,45.2,22.3,30.93,NW,321,4.0,9.0,40,0.00,,,0.00,Weather View 32 v70,2013-03-06 05:10:00,
2013-03-05 23:15:00,44.9,22.6,30.93,NNW,343,4.0,9.0,41,0.00,,,0.00,Weather View 32 v70,2013-03-06 05:15:00,
2013-03-05 23:20:00,44.6,22.9,30.92,NNE,28,2.0,9.0,42,0.00,,,0.00,Weather View 32 v70,2013-03-06 05:20:00,
2013-03-05 23:25:00,44.4,22.7,30.92,North,6,5.0,9.0,42,0.00,,,0.00,Weather View 32 v70,2013-03-06 05:25:00,
2013-03-05 23:30:00,44.4,23.3,30.92,North,6,5.0,9.0,43,0.00,,,0.00,Weather View 32 v70,2013-03-06 05:30:00,
2013-03-05 23:35:00,44.2,23.1,30.92,North,6,4.0,9.0,43,0.00,,,0.00,Weather View 32 v70,2013-03-06 05:35:00,
2013-03-05 23:40:00,43.9,22.8,30.93,NNW,343,3.0,9.0,43,0.00,,,0.00,Weather View 32 v70,2013-03-06 05:40:00,
2013-03-05 23:45:00,43.7,22.6,30.93,NNW,343,5.0,9.0,43,0.00,,,0.00,Weather View 32 v70,2013-03-06 05:45:00,
2013-03-05 23:50:00,43.6,22.5,30.93,North,6,6.0,9.0,43,0.00,,,0.00,Weather View 32 v70,2013-03-06 05:50:00,
2013-03-05 23:55:00,43.6,22.5,30.93,NNE,28,6.0,9.0,43,0.00,,,0.00,Weather View 32 v70,2013-03-06 05:55:00,